createdAt,value
2023-01-13T00:02:43.456Z,100824.69
2023-01-13T00:05:44.460Z,100829.27
2023-01-13T00:08:45.530Z,100832.27
2023-01-13T00:11:47.985Z,100832.19
2023-01-13T00:14:52.442Z,100837.92
2023-01-13T00:17:56.433Z,100845.02
2023-01-13T00:20:57.599Z,100839.48
2023-01-13T00:24:00.550Z,100841.30
2023-01-13T00:27:03.486Z,100836.33
2023-01-13T00:30:09.456Z,100837.05
2023-01-13T00:33:13.237Z,100838.79
2023-01-13T00:36:14.476Z,100843.98
2023-01-13T00:39:14.694Z,100840.08
2023-01-13T00:42:38.497Z,100837.49
2023-01-13T00:45:38.503Z,100835.23
2023-01-13T00:48:41.617Z,100836.77
2023-01-13T00:51:42.632Z,100831.52
2023-01-13T00:54:43.555Z,100830.82
2023-01-13T00:57:52.921Z,100830.65
2023-01-13T01:00:55.451Z,100827.52
2023-01-13T01:04:03.098Z,100821.29
2023-01-13T01:07:07.534Z,100821.23
2023-01-13T01:10:22.154Z,100816.90
2023-01-13T01:13:25.862Z,100814.28
2023-01-13T01:16:33.737Z,100811.27
2023-01-13T01:19:40.765Z,100810.15
2023-01-13T01:22:41.605Z,100805.66
2023-01-13T01:26:00.982Z,100804.75
2023-01-13T01:29:03.650Z,100800.30
2023-01-13T01:32:06.661Z,100796.45
2023-01-13T01:35:07.802Z,100798.86
2023-01-13T01:38:09.601Z,100795.79
2023-01-13T01:41:10.617Z,100789.67
2023-01-13T01:44:54.630Z,100785.14
2023-01-13T01:47:53.304Z,100780.69
2023-01-13T01:50:53.653Z,100784.54
2023-01-13T01:53:54.582Z,100782.27
2023-01-13T01:56:56.610Z,100783.27
2023-01-13T01:59:56.832Z,100776.37
2023-01-13T02:03:05.712Z,100774.73
2023-01-13T02:06:06.899Z,100775.59
2023-01-13T02:09:11.685Z,100776.45
2023-01-13T02:12:30.614Z,100775.36
2023-01-13T02:15:34.664Z,100773.83
2023-01-13T02:19:12.728Z,100774.83
2023-01-13T02:23:03.675Z,100773.70
2023-01-13T02:26:32.679Z,100773.56
2023-01-13T02:30:27.649Z,100772.70
2023-01-13T02:33:42.657Z,100762.77
2023-01-13T02:36:52.660Z,100762.77
2023-01-13T02:40:00.660Z,100763.37
2023-01-13T02:43:21.685Z,100759.77
2023-01-13T02:46:26.695Z,100757.65
2023-01-13T02:49:49.671Z,100760.48
2023-01-13T02:53:03.206Z,100753.33
2023-01-13T02:56:04.844Z,100751.01
2023-01-13T02:59:04.685Z,100749.27
2023-01-13T03:02:05.888Z,100749.89
2023-01-13T03:05:15.756Z,100747.61
2023-01-13T03:08:23.738Z,100749.35
2023-01-13T03:11:24.738Z,100750.15
2023-01-13T03:14:39.761Z,100752.02
2023-01-13T03:17:49.898Z,100758.27
2023-01-13T03:20:54.820Z,100756.28
2023-01-13T03:24:13.789Z,100752.89
2023-01-13T03:27:24.953Z,100750.88
2023-01-13T03:30:33.954Z,100751.31
2023-01-13T03:33:40.747Z,100744.27
2023-01-13T03:36:41.786Z,100744.50
2023-01-13T03:39:47.739Z,100750.33
2023-01-13T03:43:08.784Z,100749.73
2023-01-13T03:46:17.830Z,100747.60
2023-01-13T03:49:18.927Z,100742.95
2023-01-13T03:52:19.786Z,100745.45
2023-01-13T03:55:26.944Z,100743.77
2023-01-13T03:58:28.810Z,100743.27
2023-01-13T04:01:37.887Z,100743.61
2023-01-13T04:04:41.805Z,100745.29
2023-01-13T04:07:51.841Z,100745.79
2023-01-13T04:11:11.211Z,100743.32
2023-01-13T04:14:10.904Z,100739.60
2023-01-13T04:17:11.895Z,100743.11
2023-01-13T04:20:11.868Z,100749.75
2023-01-13T04:23:11.872Z,100746.77
2023-01-13T04:26:13.119Z,100749.23
2023-01-13T04:29:15.969Z,100750.22
2023-01-13T04:32:17.869Z,100743.55
2023-01-13T04:35:19.904Z,100748.38
2023-01-13T04:38:34.867Z,100751.40
2023-01-13T04:41:35.033Z,100755.71
2023-01-13T07:29:29.881Z,100773.64
2023-01-13T07:32:30.868Z,100777.20
2023-01-13T07:35:31.860Z,100776.02
2023-01-13T07:38:33.844Z,100778.32
2023-01-13T07:41:52.866Z,100774.27
2023-01-13T07:44:53.847Z,100773.96
2023-01-13T07:47:54.880Z,100772.17
2023-01-13T07:50:55.987Z,100776.52
2023-01-13T07:53:56.879Z,100776.27
2023-01-13T07:56:58.111Z,100772.08
2023-01-13T07:59:59.097Z,100775.04
2023-01-13T08:03:00.884Z,100779.27
2023-01-13T08:06:02.897Z,100782.65
2023-01-13T08:09:08.331Z,100785.33
2023-01-13T08:12:28.940Z,100783.85
2023-01-13T08:15:30.847Z,100785.23
2023-01-13T08:18:32.897Z,100783.35
2023-01-13T08:21:33.962Z,100780.83
2023-01-13T08:24:34.953Z,100772.39
2023-01-13T08:27:37.008Z,100767.58
2023-01-13T08:30:40.003Z,100761.45
2023-01-13T08:33:43.024Z,100757.16
2023-01-13T08:36:46.057Z,100759.49
2023-01-13T08:39:46.959Z,100758.52
2023-01-13T08:42:48.827Z,100758.64
2023-01-13T08:45:50.111Z,100764.69
2023-01-13T08:48:50.973Z,100758.47
2023-01-13T08:51:52.012Z,100755.88
2023-01-13T08:54:52.999Z,100753.98
2023-01-13T08:58:00.578Z,100759.08
2023-01-13T09:01:07.084Z,100765.38
2023-01-13T09:04:08.063Z,100761.55
2023-01-13T09:07:08.989Z,100769.83
2023-01-13T09:10:10.056Z,100757.28
2023-01-13T09:13:21.957Z,100750.27
2023-01-13T09:16:23.033Z,100748.48
2023-01-13T09:19:23.991Z,100754.75
2023-01-13T09:22:29.071Z,100749.49
2023-01-13T09:25:30.012Z,100752.16
2023-01-13T09:28:31.034Z,100745.89
2023-01-13T09:31:32.138Z,100738.69
2023-01-13T09:34:53.010Z,100738.41
2023-01-13T09:37:54.078Z,100749.52
2023-01-13T09:40:55.075Z,100747.98
2023-01-13T09:44:01.067Z,100748.31
2023-01-13T09:47:03.073Z,100743.19
2023-01-13T09:50:06.126Z,100747.59
2023-01-13T09:53:07.071Z,100740.83
2023-01-13T09:56:08.131Z,100736.78
2023-01-13T09:59:09.077Z,100727.35
2023-01-13T10:02:14.116Z,100728.27
2023-01-13T10:05:27.552Z,100725.20
2023-01-13T10:08:42.177Z,100725.61
2023-01-13T10:12:08.256Z,100724.54
2023-01-13T10:15:09.157Z,100717.70
2023-01-13T10:18:18.172Z,100710.96
2023-01-13T10:21:37.507Z,100713.16
2023-01-13T10:24:38.185Z,100702.86
2023-01-13T10:27:47.148Z,100704.37
2023-01-13T10:30:51.165Z,100706.83
2023-01-13T10:33:52.330Z,100707.51
2023-01-13T10:36:53.120Z,100709.16
2023-01-13T10:40:00.177Z,100705.52
2023-01-13T10:43:02.259Z,100700.19
2023-01-13T10:46:24.227Z,100699.19
2023-01-13T10:49:43.192Z,100697.34
2023-01-13T10:52:46.177Z,100697.24
2023-01-13T10:55:51.295Z,100690.46
2023-01-13T10:58:53.306Z,100690.77
2023-01-13T11:02:23.898Z,100689.83
2023-01-13T11:05:36.233Z,100686.33
2023-01-13T11:08:55.279Z,100683.50
2023-01-13T11:12:02.234Z,100680.46
2023-01-13T11:15:03.210Z,100686.20
2023-01-13T11:18:07.218Z,100684.16
2023-01-13T11:21:08.278Z,100687.99
2023-01-13T11:24:21.384Z,100681.80
2023-01-13T11:27:26.234Z,100681.64
2023-01-13T11:30:36.310Z,100691.73
2023-01-13T11:34:03.284Z,100684.27
2023-01-13T11:37:05.304Z,100686.13
2023-01-13T11:40:15.274Z,100688.67
2023-01-13T11:43:54.275Z,100673.74
2023-01-13T11:46:55.386Z,100665.02
2023-01-13T11:50:01.478Z,100670.16
2023-01-13T11:53:30.363Z,100667.65
2023-01-13T11:56:49.276Z,100673.34
2023-01-13T12:00:08.306Z,100667.98
2023-01-13T12:03:27.376Z,100675.59
2023-01-13T12:06:52.339Z,100679.83
2023-01-13T12:10:17.324Z,100689.89
2023-01-13T12:13:39.337Z,100682.14
2023-01-13T12:16:40.385Z,100684.98
2023-01-13T12:19:43.329Z,100693.09
2023-01-13T12:22:44.511Z,100687.40
2023-01-13T12:25:56.364Z,100688.50
2023-01-13T12:29:18.334Z,100686.11
2023-01-13T12:32:21.377Z,100694.17
2023-01-13T12:35:53.318Z,100687.39
2023-01-13T12:39:11.364Z,100694.77
2023-01-13T12:42:51.381Z,100680.76
2023-01-13T12:45:52.453Z,100678.41
2023-01-13T12:49:06.376Z,100682.17
2023-01-13T12:52:13.360Z,100680.28
2023-01-13T12:55:15.418Z,100676.55
2023-01-13T12:58:19.483Z,100680.45
2023-01-13T13:01:27.497Z,100677.76
2023-01-13T16:23:57.152Z,100671.33
2023-01-13T16:26:58.139Z,100660.33
2023-01-13T16:29:59.135Z,100667.70
2023-01-13T16:33:01.158Z,100666.66
2023-01-13T16:36:10.725Z,100671.64
2023-01-13T16:39:13.158Z,100671.04
2023-01-13T16:42:13.197Z,100667.67
2023-01-13T16:45:15.159Z,100660.80
2023-01-13T16:48:15.191Z,100661.11
2023-01-13T16:51:15.211Z,100664.98
2023-01-13T16:54:15.280Z,100663.67
2023-01-13T16:57:17.214Z,100658.09
2023-01-13T17:00:17.237Z,100656.86
2023-01-13T17:03:17.263Z,100664.32
2023-01-13T17:06:19.228Z,100661.49
2023-01-13T17:09:20.230Z,100660.16
2023-01-13T17:12:14.257Z,100663.30
2023-01-13T17:14:54.341Z,100661.50
2023-01-13T17:17:40.497Z,100660.41
2023-01-13T17:20:40.284Z,100654.83
2023-01-13T17:23:40.292Z,100661.16
2023-01-13T17:26:44.295Z,100663.57
2023-01-13T17:29:44.325Z,100663.73
2023-01-13T17:32:44.310Z,100664.50
2023-01-13T17:35:44.312Z,100667.33
2023-01-13T17:38:46.546Z,100672.70
2023-01-13T17:41:46.292Z,100668.36
2023-01-13T17:44:46.329Z,100675.46
2023-01-13T17:47:47.558Z,100670.73
2023-01-13T17:50:49.347Z,100666.52
2023-01-13T17:53:54.297Z,100672.97
2023-01-13T17:56:54.353Z,100670.64
2023-01-13T17:59:54.388Z,100668.46
2023-01-13T18:02:57.528Z,100669.60
2023-01-13T18:05:58.313Z,100665.03
2023-01-13T18:09:00.321Z,100660.05
2023-01-13T18:12:02.337Z,100657.04
2023-01-13T18:15:02.311Z,100652.35
2023-01-13T18:18:03.696Z,100648.19
2023-01-13T18:21:23.345Z,100645.11
2023-01-13T18:24:41.093Z,100644.45
2023-01-13T18:27:46.424Z,100641.30
2023-01-13T18:30:46.414Z,100642.83
2023-01-13T18:33:47.350Z,100642.34
2023-01-13T18:36:47.416Z,100638.25
2023-01-13T18:39:47.712Z,100645.43
2023-01-13T18:42:59.536Z,100635.98
2023-01-13T18:46:02.449Z,100634.71
2023-01-13T18:49:02.497Z,100634.60
2023-01-13T18:52:03.498Z,100640.59
2023-01-13T18:54:56.780Z,100642.39
2023-01-13T18:57:56.493Z,100633.20
2023-01-13T19:00:56.434Z,100634.40
2023-01-13T19:04:00.420Z,100638.27
2023-01-13T19:07:06.424Z,100638.84
2023-01-13T19:10:07.497Z,100639.48
2023-01-13T19:13:07.433Z,100637.70
2023-01-13T19:16:30.528Z,100648.32
2023-01-13T19:19:31.573Z,100655.84
2023-01-13T19:22:34.560Z,100649.70
2023-01-13T19:25:37.505Z,100646.77
2023-01-13T19:28:38.471Z,100659.01
2023-01-13T19:31:40.437Z,100651.39
2023-01-13T19:34:41.507Z,100654.84
2023-01-13T19:37:42.486Z,100662.95
2023-01-13T19:40:42.552Z,100660.98
2023-01-13T19:44:00.459Z,100661.48
2023-01-13T19:47:00.573Z,100661.15
2023-01-13T19:50:00.563Z,100656.11
2023-01-13T19:53:04.586Z,100655.44
2023-01-13T19:56:07.533Z,100652.44
2023-01-13T19:59:07.506Z,100647.17
2023-01-13T20:02:10.702Z,100642.17
2023-01-13T20:05:14.563Z,100649.40
2023-01-13T20:08:14.588Z,100644.16
2023-01-13T20:11:28.532Z,100644.64
2023-01-13T20:14:21.615Z,100637.58
2023-01-13T20:17:08.611Z,100638.02
2023-01-13T20:20:08.546Z,100642.90
2023-01-13T20:23:08.565Z,100641.01
2023-01-13T20:26:08.623Z,100642.70
2023-01-13T20:29:08.611Z,100639.23
2023-01-13T20:32:08.617Z,100643.40
2023-01-13T20:35:08.567Z,100649.05
2023-01-13T20:38:09.644Z,100647.88
2023-01-13T20:41:30.633Z,100646.95
2023-01-13T20:44:30.570Z,100654.36
2023-01-13T20:47:30.581Z,100654.84
2023-01-13T20:50:34.107Z,100658.03
2023-01-13T20:53:36.661Z,100659.39
2023-01-13T20:56:39.636Z,100666.23
2023-01-13T20:59:40.879Z,100658.80
2023-01-13T21:02:40.618Z,100668.74
2023-01-13T21:05:41.670Z,100662.48
2023-01-13T21:08:45.726Z,100663.45
2023-01-13T21:12:05.686Z,100662.54
2023-01-13T21:15:28.639Z,100668.72
2023-01-13T21:18:49.700Z,100666.08
2023-01-13T21:21:50.705Z,100655.66
2023-01-13T21:24:54.653Z,100657.95
2023-01-13T21:27:54.773Z,100655.05
2023-01-13T21:30:55.762Z,100654.25
2023-01-13T21:33:49.780Z,100657.77
2023-01-13T21:36:50.848Z,100651.37
2023-01-13T21:39:53.676Z,100650.20
2023-01-13T21:43:12.711Z,100649.13
2023-01-13T21:46:31.702Z,100644.84
2023-01-13T21:49:31.726Z,100638.13
2023-01-13T21:52:33.800Z,100641.02
2023-01-13T21:55:35.700Z,100636.48
2023-01-13T21:58:35.732Z,100645.46
2023-01-13T22:01:35.999Z,100651.56
